createdAt,value
2023-04-03T00:08:58.398Z,4.50
2023-04-03T00:11:27.479Z,4.30
2023-04-03T00:14:12.310Z,4.30
2023-04-03T00:16:47.900Z,4.30
2023-04-03T00:19:51.086Z,4.30
2023-04-03T00:22:24.018Z,4.20
2023-04-03T00:25:09.472Z,4.10
2023-04-03T00:27:56.846Z,4.10
2023-04-03T00:31:09.243Z,4.00
2023-04-03T00:34:06.205Z,3.90
2023-04-03T00:36:36.524Z,3.80
2023-04-03T00:39:21.480Z,3.90
2023-04-03T00:42:19.047Z,3.80
2023-04-03T00:45:10.576Z,3.80
2023-04-03T00:48:03.173Z,3.70
2023-04-03T00:50:53.184Z,3.70
2023-04-03T00:53:59.070Z,3.60
2023-04-03T00:57:06.053Z,3.50
2023-04-03T01:00:12.692Z,3.50
2023-04-03T01:02:58.333Z,3.50
2023-04-03T01:05:39.226Z,3.50
2023-04-03T01:08:46.440Z,3.50
2023-04-03T01:11:35.047Z,3.50
2023-04-03T01:14:27.644Z,3.40
2023-04-03T01:17:51.921Z,3.30
2023-04-03T01:27:47.270Z,3.10
2023-04-03T01:30:43.519Z,3.00
2023-04-03T01:33:37.445Z,3.00
2023-04-03T01:36:20.943Z,3.00
2023-04-03T01:38:58.328Z,3.00
2023-04-03T01:41:29.699Z,3.00
2023-04-03T01:44:38.763Z,3.10
2023-04-03T01:47:47.438Z,3.10
2023-04-03T01:50:55.010Z,3.10
2023-04-03T01:57:15.251Z,3.20
2023-04-03T02:00:02.171Z,3.20
2023-04-03T02:06:20.288Z,3.10
2023-04-03T02:12:35.394Z,3.20
2023-04-03T02:15:18.917Z,3.20
2023-04-03T02:17:48.473Z,3.20
2023-04-03T02:20:58.210Z,3.20
2023-04-03T02:23:54.485Z,3.20
2023-04-03T02:26:28.963Z,3.20
2023-04-03T02:32:13.842Z,3.20
2023-04-03T02:35:12.644Z,3.20
2023-04-03T02:37:53.139Z,3.40
2023-04-03T02:40:37.496Z,3.40
2023-04-03T02:43:22.003Z,3.40
2023-04-03T02:49:07.424Z,3.20
2023-04-03T02:51:36.764Z,3.10
2023-04-03T02:54:28.971Z,2.90
2023-04-03T03:00:11.996Z,-0.20
2023-04-03T03:03:24.336Z,-1.30
2023-04-03T03:06:32.042Z,-1.80
2023-04-03T03:09:34.842Z,-2.40
2023-04-03T03:12:38.425Z,-2.90
2023-04-03T03:15:29.952Z,-2.90
2023-04-03T03:18:05.088Z,-2.80
2023-04-03T03:21:17.839Z,-2.60
2023-04-03T03:24:03.084Z,-2.30
2023-04-03T03:26:54.361Z,-2.50
2023-04-03T03:29:58.685Z,-2.90
2023-04-03T03:32:31.739Z,-3.40
2023-04-03T03:35:00.860Z,-3.40
2023-04-03T03:37:52.742Z,-3.30
2023-04-03T03:41:00.180Z,-3.40
2023-04-03T03:43:46.184Z,-3.70
2023-04-03T03:46:30.238Z,-3.90
2023-04-03T03:49:14.494Z,-3.70
2023-04-03T03:51:59.944Z,-3.30
2023-04-03T03:55:05.990Z,-3.30
2023-04-03T03:57:53.545Z,-3.50
2023-04-03T04:00:38.233Z,-3.60
2023-04-03T04:03:16.086Z,-3.30
2023-04-03T04:06:08.418Z,-3.20
2023-04-03T04:08:50.550Z,-2.90
2023-04-03T04:11:38.225Z,-2.60
2023-04-03T04:14:21.283Z,-2.30
2023-04-03T04:17:26.642Z,-2.60
2023-04-03T04:20:08.330Z,-3.00
2023-04-03T04:22:48.555Z,-1.80
2023-04-03T04:25:43.573Z,-0.90
2023-04-03T04:28:20.562Z,0.30
2023-04-03T04:31:12.038Z,1.10
2023-04-03T04:33:52.799Z,1.50
2023-04-03T04:36:37.374Z,1.80
2023-04-03T04:39:23.615Z,2.00
2023-04-03T04:42:04.226Z,2.30
2023-04-03T04:44:40.155Z,2.50
2023-04-03T04:50:52.597Z,2.80
2023-04-03T04:54:18.491Z,3.00
2023-04-03T04:57:07.861Z,3.10
2023-04-03T04:59:54.105Z,3.30
2023-04-03T05:02:43.343Z,3.30
2023-04-03T05:05:29.494Z,3.40
2023-04-03T05:08:07.965Z,3.40
2023-04-03T05:11:00.163Z,3.50
2023-04-03T05:13:48.339Z,3.60
2023-04-03T05:16:32.123Z,3.70
2023-04-03T05:19:22.502Z,3.80
2023-04-03T05:21:56.723Z,3.90
2023-04-03T05:24:53.071Z,4.00
2023-04-03T05:27:34.450Z,4.10
2023-04-03T05:30:15.773Z,4.20
2023-04-03T05:33:03.197Z,4.30
2023-04-03T05:36:10.028Z,4.40
2023-04-03T05:38:50.451Z,4.50
2023-04-03T05:42:08.960Z,4.60
2023-04-03T05:44:53.998Z,4.80
2023-04-03T05:47:48.592Z,5.00
2023-04-03T05:50:17.296Z,5.10
2023-04-03T05:53:23.127Z,5.30
2023-04-03T05:56:24.869Z,5.30
2023-04-03T05:58:58.285Z,5.10
2023-04-03T06:04:49.165Z,5.20
2023-04-03T06:07:34.890Z,5.20
2023-04-03T06:10:24.525Z,5.40
2023-04-03T06:13:20.494Z,5.60
2023-04-03T06:15:52.776Z,5.80
2023-04-03T06:18:38.608Z,6.00
2023-04-03T06:22:00.641Z,6.20
2023-04-03T06:24:44.286Z,6.40
2023-04-03T06:27:50.162Z,6.30
2023-04-03T06:30:22.376Z,6.50
2023-04-03T06:33:19.411Z,6.60
2023-04-03T06:36:11.183Z,6.70
2023-04-03T06:39:07.491Z,7.30
2023-04-03T06:42:12.097Z,7.70
2023-04-03T06:47:51.933Z,8.70
2023-04-03T06:50:33.774Z,10.20
2023-04-03T06:53:23.571Z,11.40
2023-04-03T06:55:58.045Z,11.40
2023-04-03T06:59:35.138Z,10.90
2023-04-03T07:03:00.873Z,10.50
2023-04-03T07:05:32.370Z,11.10
2023-04-03T07:08:15.460Z,12.30
2023-04-03T07:11:12.247Z,11.40
2023-04-03T07:14:07.388Z,12.60
2023-04-03T07:16:45.017Z,13.40
2023-04-03T07:19:30.609Z,13.00
2023-04-03T07:22:28.297Z,11.60
2023-04-03T07:25:14.869Z,10.70
2023-04-03T07:28:14.900Z,11.50
2023-04-03T07:31:05.081Z,11.50
2023-04-03T07:36:56.892Z,10.20
2023-04-03T07:40:02.980Z,9.20
2023-04-03T07:43:11.103Z,8.70
2023-04-03T07:45:58.841Z,8.60
2023-04-03T07:48:36.608Z,7.90
2023-04-03T07:51:46.180Z,7.60
2023-04-03T07:54:39.899Z,7.50
2023-04-03T07:57:17.868Z,7.20
2023-04-03T08:00:40.256Z,6.70
2023-04-03T08:03:24.957Z,6.70
2023-04-03T08:06:33.015Z,6.50
2023-04-03T08:09:14.161Z,6.20
2023-04-03T08:12:12.528Z,6.20
2023-04-03T08:15:17.203Z,6.20
2023-04-03T08:18:07.764Z,6.30
2023-04-03T08:20:53.981Z,6.40
2023-04-03T08:23:46.045Z,6.40
2023-04-03T08:29:38.179Z,7.30
2023-04-03T08:32:30.738Z,7.30
2023-04-03T08:35:08.533Z,7.20
2023-04-03T08:38:03.997Z,6.80
2023-04-03T08:44:56.447Z,7.20
2023-04-03T08:48:17.016Z,7.40
2023-04-03T08:51:14.079Z,7.70
2023-04-03T08:54:24.181Z,8.00
2023-04-03T08:57:13.946Z,8.20
2023-04-03T08:59:53.642Z,7.90
2023-04-03T09:02:53.979Z,7.60
2023-04-03T09:09:13.573Z,7.00
2023-04-03T09:12:29.791Z,6.90
2023-04-03T09:15:39.076Z,6.60
2023-04-03T09:18:51.798Z,7.10
2023-04-03T09:25:22.834Z,7.90
2023-04-03T09:28:49.181Z,7.50
2023-04-03T09:31:29.305Z,7.20
2023-04-03T09:34:18.674Z,7.20
2023-04-03T09:37:20.068Z,7.30
2023-04-03T09:40:04.222Z,7.50
2023-04-03T09:42:44.079Z,7.40
2023-04-03T09:46:02.625Z,7.50
2023-04-03T09:52:44.007Z,7.70
2023-04-03T09:56:01.271Z,7.50
2023-04-03T09:58:50.359Z,8.00
2023-04-03T10:01:45.845Z,8.00
2023-04-03T10:05:08.357Z,8.10
2023-04-03T10:07:51.677Z,8.60
2023-04-03T10:10:42.146Z,8.50
2023-04-03T10:13:29.784Z,8.00
2023-04-03T10:16:54.700Z,8.00
2023-04-03T10:19:56.032Z,7.80
2023-04-03T10:29:53.507Z,7.40
2023-04-03T10:36:36.907Z,7.30
2023-04-03T10:40:24.085Z,7.40
2023-04-03T10:43:30.396Z,7.70
2023-04-03T10:46:42.083Z,7.70
2023-04-03T10:49:59.298Z,7.80
2023-04-03T10:53:14.370Z,8.20
2023-04-03T10:56:25.964Z,8.20
2023-04-03T10:59:24.114Z,7.90
2023-04-03T11:06:09.369Z,8.20
2023-04-03T11:09:21.964Z,8.30
2023-04-03T11:12:13.070Z,7.70
2023-04-03T11:15:10.199Z,7.80
2023-04-03T11:18:03.932Z,7.70
2023-04-03T11:20:52.054Z,7.40
2023-04-03T11:23:49.971Z,7.50
2023-04-03T11:27:01.854Z,7.70
2023-04-03T11:30:11.572Z,7.20
2023-04-03T11:33:28.250Z,7.10
2023-04-03T11:36:54.171Z,7.30
2023-04-03T11:39:40.935Z,7.30
2023-04-03T11:42:32.497Z,7.60
2023-04-03T11:45:31.688Z,7.50
2023-04-03T11:48:23.201Z,7.10
2023-04-03T11:50:54.463Z,7.40
2023-04-03T11:53:41.342Z,7.60
2023-04-03T11:56:27.059Z,7.50
2023-04-03T11:59:38.938Z,7.40
2023-04-03T12:05:33.482Z,7.40
2023-04-03T12:08:45.388Z,7.30
2023-04-03T12:11:32.378Z,7.00
2023-04-03T12:14:17.118Z,6.80
2023-04-03T12:16:47.827Z,6.70
2023-04-03T12:19:59.946Z,7.00
2023-04-03T12:22:34.474Z,7.40
2023-04-03T12:25:48.743Z,7.10
2023-04-03T12:28:16.628Z,7.10
2023-04-03T12:30:48.098Z,6.90
2023-04-03T12:33:43.961Z,7.00
2023-04-03T12:36:29.485Z,7.40
2023-04-03T12:39:42.831Z,7.30
2023-04-03T12:42:22.284Z,7.20
2023-04-03T12:45:24.503Z,7.00
2023-04-03T12:47:58.022Z,6.70
2023-04-03T12:50:32.762Z,6.60
2023-04-03T12:53:14.124Z,6.50
2023-04-03T12:55:42.576Z,6.60
2023-04-03T12:58:29.853Z,6.70
2023-04-03T13:01:20.461Z,6.60
2023-04-03T13:03:53.269Z,6.60
2023-04-03T13:06:41.653Z,6.70
2023-04-03T13:09:34.588Z,6.60
2023-04-03T13:12:19.107Z,6.70
2023-04-03T13:15:05.851Z,6.70
2023-04-03T13:17:33.464Z,6.70
2023-04-03T13:20:33.733Z,6.60
2023-04-03T13:23:06.225Z,6.80
2023-04-03T13:25:38.134Z,7.00
2023-04-03T13:28:13.870Z,6.60
2023-04-03T13:31:31.664Z,5.80
2023-04-03T13:34:11.054Z,5.30
2023-04-03T13:36:57.556Z,4.60
2023-04-03T13:39:36.775Z,4.90
2023-04-03T13:42:26.581Z,4.60
2023-04-03T13:45:29.682Z,4.40
2023-04-03T13:48:49.117Z,5.10
2023-04-03T13:51:30.322Z,6.30
2023-04-03T13:54:15.445Z,6.80
2023-04-03T13:56:45.364Z,6.90
2023-04-03T13:59:17.720Z,6.80
2023-04-03T14:02:37.380Z,6.80
2023-04-03T14:05:07.019Z,6.70
2023-04-03T14:07:34.437Z,6.80
2023-04-03T14:10:03.008Z,6.90
2023-04-03T14:12:35.508Z,7.00
2023-04-03T14:15:05.791Z,7.00
2023-04-03T14:17:34.643Z,7.10
2023-04-03T14:20:05.044Z,7.00
2023-04-03T14:22:36.480Z,7.00
2023-04-03T14:25:07.482Z,7.10
2023-04-03T14:27:44.501Z,7.40
2023-04-03T14:30:40.866Z,7.40
2023-04-03T14:33:18.889Z,7.30
2023-04-03T14:35:46.852Z,7.20
2023-04-03T14:38:33.350Z,7.10
2023-04-03T14:41:14.016Z,7.00
2023-04-03T14:43:47.585Z,7.00
2023-04-03T14:46:38.724Z,6.90
2023-04-03T14:49:29.470Z,6.80
2023-04-03T14:51:59.365Z,6.80
2023-04-03T14:54:30.709Z,6.90
2023-04-03T14:57:01.578Z,6.80
2023-04-03T14:59:32.745Z,6.70
2023-04-03T15:02:04.469Z,6.60
2023-04-03T15:04:34.999Z,6.50
2023-04-03T15:07:03.811Z,6.40
2023-04-03T15:09:32.451Z,6.40
2023-04-03T15:12:03.789Z,6.30
2023-04-03T15:14:51.870Z,6.00
2023-04-03T15:17:24.017Z,5.40
2023-04-03T15:19:52.668Z,4.90
2023-04-03T15:22:22.951Z,4.70
2023-04-03T15:25:00.617Z,4.10
2023-04-03T15:27:29.532Z,3.90
2023-04-03T15:29:58.247Z,4.00
2023-04-03T15:32:27.114Z,3.50
2023-04-03T15:34:57.904Z,4.00
2023-04-03T15:37:27.443Z,4.20
2023-04-03T15:39:54.948Z,3.90
2023-04-03T15:42:24.907Z,4.10
2023-04-03T15:45:02.585Z,3.20
2023-04-03T15:47:33.804Z,2.60
2023-04-03T15:50:02.844Z,2.10
2023-04-03T15:52:32.163Z,2.20
2023-04-03T15:55:09.819Z,2.30
2023-04-03T16:00:10.247Z,2.60
2023-04-03T16:02:40.087Z,3.80
2023-04-03T16:05:12.352Z,4.70
2023-04-03T16:07:43.417Z,5.10
2023-04-03T16:10:23.706Z,5.20
2023-04-03T16:12:59.443Z,5.30
2023-04-03T16:15:29.282Z,5.30
2023-04-03T16:17:56.650Z,5.30
2023-04-03T16:20:27.896Z,5.30
2023-04-03T16:22:58.402Z,5.30
2023-04-03T16:25:27.432Z,5.20
2023-04-03T16:28:01.969Z,5.20
2023-04-03T16:30:30.688Z,5.10
2023-04-03T16:33:00.238Z,5.00
2023-04-03T16:35:30.815Z,4.90
2023-04-03T16:37:59.294Z,4.90
2023-04-03T16:40:27.499Z,4.80
2023-04-03T16:42:56.661Z,4.80
2023-04-03T16:45:27.204Z,4.80
2023-04-03T16:47:55.613Z,4.60
2023-04-03T16:50:26.235Z,4.60
2023-04-03T16:52:55.283Z,4.50
2023-04-03T16:55:34.043Z,4.40
2023-04-03T16:58:04.083Z,4.30
2023-04-03T17:00:35.189Z,4.30
2023-04-03T17:03:11.426Z,4.20
2023-04-03T17:05:41.950Z,4.20
2023-04-03T17:08:10.812Z,4.10
2023-04-03T17:10:40.495Z,4.10
2023-04-03T17:13:09.882Z,4.10
2023-04-03T17:15:44.100Z,4.00
2023-04-03T17:18:11.451Z,3.90
2023-04-03T17:20:40.000Z,3.80
2023-04-03T17:23:10.369Z,3.70
2023-04-03T17:25:37.803Z,3.70
2023-04-03T17:28:07.350Z,3.60
2023-04-03T17:30:36.165Z,3.50
2023-04-03T17:33:04.237Z,3.40
2023-04-03T17:35:34.307Z,3.40
2023-04-03T17:38:05.926Z,3.40
2023-04-03T17:40:33.328Z,3.30
2023-04-03T17:43:01.837Z,3.20
2023-04-03T17:45:30.061Z,3.20
2023-04-03T17:47:59.916Z,3.10
2023-04-03T17:50:30.173Z,3.10
2023-04-03T17:52:58.390Z,3.10
2023-04-03T17:55:27.131Z,3.10
2023-04-03T17:57:57.157Z,3.10
2023-04-03T18:00:27.783Z,3.10
2023-04-03T18:02:55.290Z,3.00
2023-04-03T18:05:22.690Z,2.90
2023-04-03T18:07:53.444Z,2.90
2023-04-03T18:10:29.889Z,3.00
2023-04-03T18:13:06.680Z,3.00
2023-04-03T18:15:37.887Z,2.90
2023-04-03T18:18:08.006Z,2.90
2023-04-03T18:20:37.765Z,2.90
2023-04-03T18:23:07.516Z,2.90
2023-04-03T18:25:38.636Z,2.80
2023-04-03T18:28:16.731Z,2.70
2023-04-03T18:30:50.214Z,2.70
2023-04-03T18:33:18.485Z,2.60
2023-04-03T18:35:52.243Z,2.60
2023-04-03T18:38:32.209Z,2.50
2023-04-03T18:41:02.172Z,2.50
2023-04-03T18:43:45.326Z,2.60
2023-04-03T18:46:15.282Z,2.50
2023-04-03T18:48:45.082Z,2.50
2023-04-03T18:51:15.686Z,2.50
2023-04-03T18:53:52.407Z,2.50
2023-04-03T18:56:22.639Z,2.50
2023-04-03T18:58:51.589Z,2.40
2023-04-03T19:01:28.877Z,2.40
2023-04-03T19:04:02.492Z,2.30
2023-04-03T19:06:30.243Z,2.30
2023-04-03T19:08:58.513Z,2.30
2023-04-03T19:11:30.139Z,2.30
2023-04-03T19:14:16.211Z,2.20
2023-04-03T19:16:47.204Z,2.20
2023-04-03T19:19:14.893Z,2.10
2023-04-03T19:21:42.387Z,2.20
2023-04-03T19:24:13.954Z,2.20
2023-04-03T19:26:43.090Z,2.20
2023-04-03T19:29:13.252Z,2.30
2023-04-03T19:31:43.753Z,2.20
2023-04-03T19:34:14.123Z,2.20
2023-04-03T19:36:51.890Z,2.10
2023-04-03T19:39:20.758Z,2.10
2023-04-03T19:41:57.493Z,2.10
2023-04-03T19:44:25.716Z,2.10
2023-04-03T19:46:53.822Z,2.10
2023-04-03T19:49:23.834Z,2.00
2023-04-03T19:51:51.481Z,2.00
2023-04-03T19:54:21.587Z,2.10
2023-04-03T19:56:52.026Z,2.10
2023-04-03T19:59:20.980Z,2.10
2023-04-03T20:01:51.721Z,2.10
2023-04-03T20:04:19.965Z,2.10
2023-04-03T20:06:49.889Z,2.10
2023-04-03T20:09:25.626Z,2.10
2023-04-03T20:11:55.694Z,2.00
2023-04-03T20:14:24.173Z,2.00
2023-04-03T20:16:53.599Z,2.00
2023-04-03T20:19:27.042Z,1.90
2023-04-03T20:21:57.181Z,1.90
2023-04-03T20:24:27.948Z,1.80
2023-04-03T20:26:58.172Z,1.80
2023-04-03T20:29:30.107Z,1.80
2023-04-03T20:32:00.002Z,1.80
2023-04-03T20:34:33.881Z,1.80
2023-04-03T20:37:10.505Z,1.80
2023-04-03T20:39:38.159Z,1.70
2023-04-03T20:42:07.305Z,1.70
2023-04-03T20:44:35.618Z,1.70
2023-04-03T20:47:13.152Z,1.70
2023-04-03T20:49:44.813Z,1.70
2023-04-03T20:52:13.271Z,1.70
2023-04-03T20:54:41.812Z,1.70
2023-04-03T20:57:10.566Z,1.70
2023-04-03T20:59:41.357Z,1.70
2023-04-03T21:02:09.781Z,1.60
2023-04-03T21:04:49.796Z,1.60
2023-04-03T21:07:55.817Z,1.60
2023-04-03T21:11:04.598Z,1.60
2023-04-03T21:14:18.492Z,1.70
2023-04-03T21:16:54.748Z,1.70
2023-04-03T21:19:33.522Z,1.60
2023-04-03T21:22:08.470Z,1.60
2023-04-03T21:24:39.335Z,1.50
2023-04-03T21:27:11.458Z,1.50
2023-04-03T21:29:39.969Z,1.60
2023-04-03T21:32:16.575Z,1.70
2023-04-03T21:34:49.257Z,1.70
2023-04-03T21:37:19.880Z,1.60
2023-04-03T21:40:04.849Z,1.60
2023-04-03T21:42:35.180Z,1.60
2023-04-03T21:45:04.498Z,1.50
2023-04-03T21:47:36.339Z,1.50
2023-04-03T21:50:06.086Z,1.50
2023-04-03T21:52:34.726Z,1.50
2023-04-03T21:55:03.154Z,1.50
2023-04-03T21:57:32.356Z,1.50
2023-04-03T22:00:01.272Z,1.50
2023-04-03T22:02:32.658Z,1.40
2023-04-03T22:05:00.850Z,1.40
2023-04-03T22:07:28.147Z,0.50
2023-04-03T22:09:58.169Z,0.00
2023-04-03T22:12:28.248Z,-0.30
2023-04-03T22:14:56.292Z,-0.30
2023-04-03T22:17:26.080Z,-0.90
2023-04-03T22:19:56.972Z,-2.00
2023-04-03T22:22:28.083Z,-1.80
2023-04-03T22:24:57.603Z,-1.40
2023-04-03T22:27:24.563Z,-1.20
2023-04-03T22:29:53.529Z,-1.10
2023-04-03T22:32:22.256Z,-1.40
2023-04-03T22:34:50.823Z,-1.20
2023-04-03T22:37:20.567Z,-0.90
2023-04-03T22:39:51.226Z,-1.20
2023-04-03T22:42:19.622Z,-1.20
2023-04-03T22:44:49.731Z,-0.90
2023-04-03T22:47:18.470Z,-1.10
2023-04-03T22:49:46.840Z,-1.00
2023-04-03T22:52:16.899Z,-1.10
2023-04-03T22:54:45.610Z,-1.30
2023-04-03T22:57:16.177Z,-1.40
2023-04-03T22:59:47.364Z,-1.10
2023-04-03T23:02:20.061Z,-1.60
2023-04-03T23:04:48.748Z,-1.90
2023-04-03T23:07:28.602Z,-1.70
2023-04-03T23:09:58.209Z,-1.50
2023-04-03T23:12:28.724Z,-0.70
2023-04-03T23:14:56.967Z,0.00
2023-04-03T23:17:33.705Z,0.20
2023-04-03T23:20:05.403Z,0.30
2023-04-03T23:22:34.396Z,0.40
2023-04-03T23:25:02.590Z,0.40
2023-04-03T23:27:38.429Z,0.40
2023-04-03T23:30:24.947Z,0.30
2023-04-03T23:32:54.942Z,0.30
2023-04-03T23:35:32.460Z,0.30
2023-04-03T23:38:02.140Z,0.30
2023-04-03T23:40:30.583Z,0.30
2023-04-03T23:43:01.754Z,0.30
2023-04-03T23:45:37.485Z,0.30
2023-04-03T23:48:10.115Z,0.20
2023-04-03T23:50:39.364Z,0.20
2023-04-03T23:53:06.611Z,0.20
2023-04-03T23:55:36.995Z,0.20
2023-04-03T23:58:06.952Z,0.20
